Amite, LA

7:34 PM CDT on May 22, 2015 (GMT -0500)
Bolivar | | Change Station
CLOSE
Current Station
Personal Weather Station
Location: Kentwood, LA
Elevation: 282 ft
Nearby Weather Stations

Elev 282 ft 30.86 °N, 90.38 °W | Updated 4 minutes ago

Mostly Cloudy
Mostly Cloudy
74.7 °F
Feels Like 74 °F
N
0.0
Wind Variable Wind from ENE
Gusts 0.0 mph

Today
High -- | Low -- °F
--% Chance of Precip.
Yesterday
High -- | Low -- °F
Precip. -- in
6:03 AM 7:54 PM
Waxing Crescent, 25% visible
Pressure 30.16 in
Visibility 10.0 miles
Clouds Scattered Clouds 3800 ft
Scattered Clouds 4500 ft
Scattered Clouds 5000 ft
Heat Index 74 °F
Dew Point 71 °F
Humidity 87%
Rainfall 0.00 in
Snow Depth Not available.
UV 0 out of 12
Pollen 4.00 out of 12
Air Quality Not available.
Flu Activity Sporadic
METAR KHDC 230015Z AUTO 00000KT 10SM SCT038 SCT045 SCT050 26/20 A3016 RMK AO2

More Conditions Fewer Conditions

Pressure 30.16 in
Visibility 10.0 miles
Clouds Scattered Clouds 3800 ft
Scattered Clouds 4500 ft
Scattered Clouds 5000 ft
Heat Index 74 °F
Dew Point 71 °F
Humidity 87%
Rainfall 0.00 in
Snow Depth Not available.
UV 0 out of 12
Pollen 4.00 out of 12
Air Quality Not available.
Flu Activity Sporadic
METAR KHDC 230015Z AUTO 00000KT 10SM SCT038 SCT045 SCT050 26/20 A3016 RMK AO2

More Conditions Fewer Conditions

10-Day Weather Forecast

Almanac

Astronomy

May. 22, 2015 Rise Set
Actual Time
Civil Twilight
Nautical Twilight
Astronomical Twilight
Moon
Length of Visible Light
Length of Day
Tomorrow will be .
, % of the Moon is Illuminated

Today's Extremes

State Highs State Lows

Community

WunderPhotos

Upload Photos

1,823,344 photos uploaded!

WunderBlogs® & News

Nearby

Air Quality

  Air Quality AQ Index Pollutant
Not available.

Snow Depth

Station Depth Elevation

Earthquake Activity

City Distance Mag. Time & Date
Minimum magnitude displayed is 2.5.

Coastal Water Temperatures

Place Temperature

Stations

Nearby Weather Stations

Station Location Temp. Windchill Dew Point Humidity Wind Precip. Elev Updated Type